Time;durP1;ratioP1;P1;durP2;ratioP2;P2;SDS_P1;SDS_P2;PMS_P1;PMS_P2;Temp;Humidity;BMP_temperature;BMP_pressure;BME280_temperature;BME280_humidity;BME280_pressure;Samples;Min_cycle;Max_cycle;Signal;HPM_P1;HPM_P2
2022/11/17 00:00:51;;;;;;;2.20;1.30;;;;;;;5.95;70.09;97807.98;227518;1239;138733;-67
2022/11/17 00:05:54;;;;;;;1.90;1.40;;;;;;;5.95;70.05;97803.41;226557;1241;140168;-66
2022/11/17 00:11:01;;;;;;;1.70;1.20;;;;;;;5.97;70.20;97803.30;226680;1234;139125;-68
2022/11/17 00:16:04;;;;;;;1.90;1.20;;;;;;;6.00;70.28;97799.77;226581;1249;138980;-66
2022/11/17 00:21:22;;;;;;;1.90;1.20;;;;;;;6.03;70.17;97799.36;227619;1238;140465;-66
2022/11/17 00:26:33;;;;;;;1.60;1.30;;;;;;;6.03;70.17;97802.39;226358;1240;140226;-65
2022/11/17 00:36:59;;;;;;;1.70;1.10;;;;;;;5.95;69.98;97817.13;226438;1240;138235;-65
2022/11/17 00:42:02;;;;;;;3.30;1.40;;;;;;;5.94;70.38;97820.58;226357;1243;139496;-67
2022/11/17 00:47:05;;;;;;;2.40;1.70;;;;;;;5.91;70.26;97828.64;226400;1249;139944;-65
2022/11/17 00:52:08;;;;;;;2.40;1.40;;;;;;;5.93;70.41;97826.40;226464;1238;139727;-65
2022/11/17 00:57:11;;;;;;;2.30;1.50;;;;;;;5.99;70.51;97827.66;226549;1238;138565;-66
2022/11/17 01:02:14;;;;;;;1.50;1.10;;;;;;;6.02;70.45;97824.25;227567;1228;138628;-64
2022/11/17 01:07:18;;;;;;;2.40;1.40;;;;;;;6.05;70.47;97824.25;226516;1242;139176;-65
2022/11/17 01:12:21;;;;;;;1.30;1.00;;;;;;;6.04;70.38;97816.56;226356;1243;138399;-65
2022/11/17 01:17:24;;;;;;;1.10;0.90;;;;;;;6.08;70.37;97814.02;226372;1238;138531;-66
2022/11/17 01:22:27;;;;;;;1.20;0.90;;;;;;;6.09;70.33;97814.15;226333;1244;138555;-65
2022/11/17 01:27:30;;;;;;;1.40;1.00;;;;;;;6.06;70.58;97806.23;226386;1249;138142;-69
2022/11/17 01:32:33;;;;;;;1.30;0.90;;;;;;;6.03;70.52;97800.10;226345;1249;138445;-66
2022/11/17 01:37:36;;;;;;;1.00;0.90;;;;;;;5.98;70.61;97788.63;226456;1238;138703;-67
2022/11/17 01:42:39;;;;;;;1.00;0.90;;;;;;;6.00;70.70;97784.24;226351;1241;139738;-68
2022/11/17 01:47:53;;;;;;;1.20;1.10;;;;;;;6.05;70.75;97788.73;226329;1243;138950;-68
2022/11/17 01:52:59;;;;;;;1.60;1.00;;;;;;;6.04;70.39;97791.58;226326;1242;138697;-65
2022/11/17 01:58:11;;;;;;;1.00;0.90;;;;;;;6.06;70.54;97794.98;226479;1235;138816;-67
2022/11/17 02:03:14;;;;;;;1.20;0.80;;;;;;;6.04;70.51;97796.33;226461;1227;137847;-68
2022/11/17 02:08:21;;;;;;;1.10;0.70;;;;;;;6.00;70.46;97800.27;225984;1242;137759;-68
2022/11/17 02:13:24;;;;;;;0.80;0.60;;;;;;;5.94;70.38;97807.70;225977;1251;138985;-68
2022/11/17 02:18:27;;;;;;;0.90;0.70;;;;;;;5.90;70.69;97807.93;226253;1236;138577;-67
2022/11/17 02:23:50;;;;;;;0.80;0.80;;;;;;;5.85;70.60;97802.23;226207;1251;138187;-67
2022/11/17 02:29:02;;;;;;;1.50;0.70;;;;;;;5.83;70.63;97807.48;226204;1240;138628;-67
2022/11/17 02:34:17;;;;;;;1.10;0.80;;;;;;;5.86;70.69;97800.61;226154;1242;138741;-66
2022/11/17 02:39:25;;;;;;;1.00;0.90;;;;;;;5.92;70.70;97797.41;226338;1235;138575;-66
2022/11/17 02:44:38;;;;;;;0.90;0.70;;;;;;;5.96;70.33;97790.00;226196;1236;138255;-66
2022/11/17 02:49:54;;;;;;;1.00;0.80;;;;;;;5.95;70.20;97778.24;226237;1244;137958;-68
2022/11/17 02:55:02;;;;;;;0.60;0.60;;;;;;;5.92;70.37;97765.73;226407;1243;138435;-66
2022/11/17 03:00:09;;;;;;;0.60;0.60;;;;;;;5.88;70.12;97761.05;226351;1236;138713;-67
2022/11/17 03:05:26;;;;;;;0.90;0.80;;;;;;;5.84;70.15;97766.03;226804;1237;138066;-65
2022/11/17 03:10:48;;;;;;;2.00;0.80;;;;;;;5.82;70.06;97774.95;226221;1240;138135;-68
2022/11/17 03:16:06;;;;;;;0.70;0.70;;;;;;;5.80;70.19;97790.27;226201;1235;138090;-68
2022/11/17 03:21:20;;;;;;;1.00;0.80;;;;;;;5.77;70.37;97798.38;226372;1245;138830;-66
2022/11/17 03:26:36;;;;;;;0.60;0.60;;;;;;;5.80;70.24;97791.13;226326;1236;138651;-64
2022/11/17 03:31:42;;;;;;;;;;;;;;;5.84;70.57;97794.77;226261;1243;138806;-65
2022/11/17 03:36:50;;;;;;;0.70;0.60;;;;;;;5.83;70.57;97792.16;226320;1245;125382;-65
2022/11/17 03:41:58;;;;;;;0.90;0.60;;;;;;;5.80;70.37;97793.55;227341;1241;138426;-66
2022/11/17 03:47:05;;;;;;;0.60;0.50;;;;;;;5.82;70.42;97791.85;227229;1244;138112;-65
2022/11/17 03:52:10;;;;;;;0.40;0.40;;;;;;;5.81;70.70;97788.76;226384;1248;138421;-64
2022/11/17 03:57:51;;;;;;;31.60;22.80;;;;;;;5.85;71.45;97794.28;227138;1229;138603;-65
2022/11/17 04:02:57;;;;;;;0.90;0.70;;;;;;;5.88;71.03;97796.92;225743;1248;138894;-64
2022/11/17 04:08:00;;;;;;;0.70;0.50;;;;;;;5.87;71.07;97797.70;226162;1251;138766;-67
2022/11/17 04:18:25;;;;;;;2.70;2.40;;;;;;;6.00;70.90;97796.75;226175;1251;138890;-65
2022/11/17 04:23:28;;;;;;;0.80;0.60;;;;;;;5.98;70.65;97791.60;226309;1245;139651;-67
2022/11/17 04:28:36;;;;;;;0.80;0.70;;;;;;;5.95;70.67;97793.06;226376;1248;138258;-66
2022/11/17 04:33:44;;;;;;;1.00;0.70;;;;;;;5.97;70.85;97800.12;226182;1240;138012;-67
2022/11/17 04:38:49;;;;;;;0.90;0.70;;;;;;;5.90;70.55;97807.00;226201;1251;138453;-65
2022/11/17 04:43:53;;;;;;;0.80;0.60;;;;;;;5.85;70.66;97806.27;226247;1251;138433;-67
2022/11/17 04:48:57;;;;;;;0.50;0.50;;;;;;;5.81;70.70;97813.06;226274;1251;138279;-68
2022/11/17 04:54:01;;;;;;;199.00;122.90;;;;;;;5.79;71.04;97815.11;226151;1251;138415;-70
2022/11/17 04:59:04;;;;;;;1.20;0.80;;;;;;;5.87;71.06;97802.31;227377;1234;139794;-69
2022/11/17 05:04:09;;;;;;;0.70;0.60;;;;;;;5.92;70.67;97803.77;226089;1237;138727;-67
2022/11/17 05:09:13;;;;;;;;;;;;;;;5.95;70.21;97810.48;226203;1250;138910;-71
2022/11/17 05:14:19;;;;;;;0.80;0.60;;;;;;;5.91;70.08;97810.31;226166;1241;124582;-70
2022/11/17 05:19:23;;;;;;;;;;;;;;;5.87;70.06;97813.56;225964;1251;138520;-72
2022/11/17 05:24:26;;;;;;;0.60;0.60;;;;;;;5.84;70.32;97811.97;226304;1251;124757;-69
2022/11/17 05:29:29;;;;;;;0.50;0.50;;;;;;;5.75;69.90;97814.66;226252;1237;138553;-66
2022/11/17 05:34:32;;;;;;;0.50;0.50;;;;;;;5.66;70.04;97813.77;226321;1251;138202;-67
2022/11/17 05:39:35;;;;;;;0.60;0.60;;;;;;;5.59;70.20;97819.49;226296;1251;138299;-65
2022/11/17 05:44:38;;;;;;;0.50;0.50;;;;;;;5.57;70.32;97825.65;226127;1233;137936;-64
2022/11/17 05:49:42;;;;;;;1.10;0.50;;;;;;;5.58;70.35;97824.34;226294;1251;138553;-64
2022/11/17 05:54:44;;;;;;;0.50;0.50;;;;;;;5.63;70.06;97833.53;226062;1251;138532;-64
2022/11/17 05:59:53;;;;;;;0.60;0.60;;;;;;;5.63;69.90;97832.66;226112;1241;138397;-68
2022/11/17 06:04:57;;;;;;;0.70;0.50;;;;;;;5.59;69.72;97833.73;226165;1242;138160;-67
2022/11/17 06:10:02;;;;;;;0.80;0.70;;;;;;;5.53;69.65;97829.61;227173;1233;138171;-64
2022/11/17 06:15:05;;;;;;;0.60;0.60;;;;;;;5.44;69.89;97836.10;226201;1243;138281;-65
2022/11/17 06:20:16;;;;;;;1.40;0.80;;;;;;;5.41;69.66;97852.98;226045;1251;139116;-64
2022/11/17 06:25:19;;;;;;;1.00;0.90;;;;;;;5.33;69.54;97867.18;226195;1241;138149;-65
2022/11/17 06:30:22;;;;;;;0.70;0.60;;;;;;;5.21;69.44;97870.00;226279;1243;138368;-66
2022/11/17 06:35:27;;;;;;;0.80;0.70;;;;;;;5.14;69.64;97878.14;226295;1251;139031;-68
2022/11/17 06:40:30;;;;;;;0.70;0.70;;;;;;;5.19;69.30;97874.19;227228;1236;138528;-68
2022/11/17 06:45:42;;;;;;;4.10;1.20;;;;;;;5.19;69.27;97880.12;225845;1241;137763;-77
2022/11/17 06:50:47;;;;;;;1.50;0.90;;;;;;;5.14;69.19;97879.36;225941;1251;139674;-69
2022/11/17 06:55:58;;;;;;;1.10;0.70;;;;;;;5.12;69.38;97891.46;227080;1229;139267;-71
2022/11/17 07:01:04;;;;;;;1.20;0.90;;;;;;;5.11;69.08;97895.23;227104;1236;138137;-71
2022/11/17 07:06:09;;;;;;;1.10;0.90;;;;;;;5.06;69.36;97897.44;225918;1251;138754;-69
2022/11/17 07:11:15;;;;;;;1.00;0.90;;;;;;;5.04;69.53;97906.34;226224;1246;138573;-65
2022/11/17 07:16:19;;;;;;;2.20;0.90;;;;;;;5.01;69.64;97897.01;225942;1251;138126;-68
2022/11/17 07:21:26;;;;;;;0.80;0.80;;;;;;;5.00;69.51;97889.52;226099;1251;138373;-65
2022/11/17 07:26:29;;;;;;;1.00;0.90;;;;;;;5.03;69.73;97894.79;227231;1233;139197;-70
2022/11/17 07:31:35;;;;;;;1.10;0.80;;;;;;;5.09;69.66;97896.18;226218;1240;138740;-69
2022/11/17 07:36:38;;;;;;;0.90;0.90;;;;;;;5.16;69.38;97897.75;226213;1243;139456;-68
2022/11/17 07:41:41;;;;;;;0.80;0.80;;;;;;;5.20;69.14;97899.41;226022;1252;139006;-64
2022/11/17 07:46:44;;;;;;;1.10;1.00;;;;;;;5.23;69.20;97905.75;226394;1237;137937;-63
2022/11/17 07:51:47;;;;;;;1.60;1.10;;;;;;;5.18;69.22;97911.65;226063;1236;137769;-65
2022/11/17 07:56:50;;;;;;;2.10;1.30;;;;;;;5.12;69.25;97917.29;227180;1230;138196;-66
2022/11/17 08:01:53;;;;;;;2.40;0.90;;;;;;;5.13;69.25;97913.92;226203;1251;138341;-70
2022/11/17 08:06:56;;;;;;;1.20;1.10;;;;;;;5.06;68.99;97917.81;226191;1245;138443;-69
2022/11/17 08:11:59;;;;;;;1.40;1.10;;;;;;;5.03;69.45;97913.98;227167;1237;139226;-67
2022/11/17 08:17:03;;;;;;;1.10;0.90;;;;;;;5.10;69.47;97905.48;227554;1231;138456;-66
2022/11/17 08:22:06;;;;;;;2.20;0.90;;;;;;;5.18;69.55;97909.73;226116;1246;139150;-75
2022/11/17 08:27:09;;;;;;;2.00;1.20;;;;;;;5.26;68.93;97905.41;226138;1242;138764;-71
2022/11/17 08:32:12;;;;;;;2.30;1.30;;;;;;;5.29;69.29;97907.86;225955;1241;138568;-71
2022/11/17 08:37:15;;;;;;;1.20;1.00;;;;;;;5.31;69.32;97907.75;227112;1248;139002;-67
2022/11/17 08:42:18;;;;;;;3.40;1.40;;;;;;;5.33;69.39;97910.25;226194;1240;138110;-68
2022/11/17 08:47:21;;;;;;;2.00;1.60;;;;;;;5.32;69.49;97922.66;226396;1253;138267;-70
2022/11/17 08:52:26;;;;;;;2.50;1.50;;;;;;;5.30;69.25;97925.20;226202;1252;138671;-72
2022/11/17 08:57:30;;;;;;;1.90;1.30;;;;;;;5.29;69.06;97923.86;226110;1237;137646;-69
2022/11/17 09:02:33;;;;;;;2.20;1.50;;;;;;;5.27;69.20;97932.95;226188;1241;138103;-68
2022/11/17 09:07:36;;;;;;;1.70;1.50;;;;;;;5.22;68.79;97939.22;226178;1253;138731;-65
2022/11/17 09:12:40;;;;;;;1.90;1.20;;;;;;;5.18;69.04;97939.27;226064;1242;138350;-69
2022/11/17 09:17:46;;;;;;;2.10;1.60;;;;;;;5.23;69.35;97937.59;227419;1230;138231;-66
2022/11/17 09:22:49;;;;;;;1.90;1.70;;;;;;;5.27;69.12;97927.70;226285;1241;140457;-64
2022/11/17 09:27:52;;;;;;;2.00;1.70;;;;;;;5.26;68.81;97925.64;226154;1235;138542;-63
2022/11/17 09:32:56;;;;;;;2.50;1.70;;;;;;;5.24;69.05;97925.38;226147;1241;138561;-65
2022/11/17 09:38:00;;;;;;;1.90;1.30;;;;;;;5.20;68.84;97927.02;226187;1256;137861;-64
2022/11/17 09:43:15;;;;;;;3.20;1.60;;;;;;;5.19;68.90;97924.59;225916;1245;138162;-66
2022/11/17 09:48:33;;;;;;;1.10;0.90;;;;;;;5.19;69.16;97931.14;226173;1243;137999;-66
2022/11/17 09:54:12;;;;;;;1.50;1.30;;;;;;;5.17;69.12;97934.93;226188;1239;138937;-65
2022/11/17 09:59:19;;;;;;;1.40;1.10;;;;;;;5.15;68.83;97930.98;226188;1256;138555;-70
2022/11/17 10:04:28;;;;;;;1.70;1.30;;;;;;;5.14;68.53;97936.17;227368;1230;139223;-67
2022/11/17 10:09:43;;;;;;;1.50;1.20;;;;;;;5.14;68.48;97931.23;227199;1248;138304;-65
2022/11/17 10:14:49;;;;;;;1.70;1.60;;;;;;;5.14;68.23;97931.60;226072;1256;138281;-67
2022/11/17 10:19:53;;;;;;;1.60;1.30;;;;;;;5.13;68.56;97928.99;226026;1241;138186;-66
2022/11/17 10:24:57;;;;;;;48.60;31.60;;;;;;;5.15;68.36;97929.77;226058;1242;137668;-68
2022/11/17 10:30:06;;;;;;;3.20;2.10;;;;;;;5.19;68.44;97929.19;227377;1248;138628;-67
2022/11/17 10:35:29;;;;;;;3.20;2.20;;;;;;;5.18;68.01;97917.81;226223;1241;138476;-65
2022/11/17 10:40:38;;;;;;;3.80;1.70;;;;;;;5.13;67.76;97922.36;226228;1255;138574;-66
2022/11/17 10:45:55;;;;;;;238.00;134.50;;;;;;;5.09;68.33;97928.02;226014;1233;138729;-66
2022/11/17 10:51:07;;;;;;;3.30;2.20;;;;;;;5.11;68.28;97929.48;226058;1239;139960;-70
2022/11/17 10:56:14;;;;;;;2.50;1.90;;;;;;;5.14;68.43;97931.78;226034;1241;139395;-64
2022/11/17 11:01:31;;;;;;;3.00;1.80;;;;;;;5.19;67.94;97933.25;226047;1254;139880;-63
2022/11/17 11:06:34;;;;;;;2.50;1.70;;;;;;;5.16;67.45;97937.44;225895;1256;139440;-63
2022/11/17 11:11:55;;;;;;;3.80;2.30;;;;;;;5.13;67.78;97937.99;226033;1250;139875;-63
2022/11/17 11:16:58;;;;;;;2.50;1.90;;;;;;;5.12;67.55;97937.49;226177;1245;138672;-67
2022/11/17 11:22:44;;;;;;;2.20;1.70;;;;;;;5.10;67.25;97933.95;226911;1249;138892;-66
2022/11/17 11:28:13;;;;;;;3.90;2.20;;;;;;;5.08;67.66;97934.40;225897;1258;137858;-65
2022/11/17 11:33:32;;;;;;;3.40;2.10;;;;;;;5.09;67.21;97933.83;226280;1237;138181;-65
2022/11/17 11:38:54;;;;;;;3.20;1.80;;;;;;;5.06;67.31;97943.85;226200;1243;139265;-66
2022/11/17 11:44:18;;;;;;;2.30;2.00;;;;;;;5.02;67.03;97941.45;225949;1237;138157;-65
2022/11/17 11:49:53;;;;;;;2.20;1.50;;;;;;;5.01;67.28;97942.73;226106;1243;139351;-64
2022/11/17 11:55:04;;;;;;;2.00;1.60;;;;;;;5.06;66.94;97939.60;225974;1241;140051;-69
2022/11/17 12:00:15;;;;;;;1.80;1.50;;;;;;;5.15;66.97;97941.02;226064;1256;139792;-67
2022/11/17 12:05:28;;;;;;;3.80;2.30;;;;;;;5.23;67.13;97944.60;226194;1253;138236;-64
2022/11/17 12:10:37;;;;;;;2.70;2.20;;;;;;;5.22;67.08;97944.14;225975;1253;138273;-63
2022/11/17 12:15:40;;;;;;;3.00;2.00;;;;;;;5.19;66.75;97926.02;225931;1241;138748;-65
2022/11/17 12:20:48;;;;;;;2.00;1.80;;;;;;;5.19;66.62;97915.15;226076;1237;138065;-64
2022/11/17 12:25:56;;;;;;;2.50;1.80;;;;;;;5.17;66.26;97917.37;226104;1249;138609;-67
2022/11/17 12:31:10;;;;;;;2.50;2.00;;;;;;;5.15;66.61;97922.74;226075;1240;137985;-66
2022/11/17 12:36:22;;;;;;;3.20;2.10;;;;;;;5.10;66.73;97928.52;226143;1241;138520;-65
2022/11/17 12:41:47;;;;;;;3.50;2.20;;;;;;;5.03;66.68;97939.29;226115;1237;139084;-69
2022/11/17 12:47:01;;;;;;;2.60;2.10;;;;;;;4.99;66.99;97944.94;225957;1237;138809;-62
2022/11/17 12:52:14;;;;;;;2.90;2.00;;;;;;;5.01;66.67;97948.36;226065;1237;138544;-63
2022/11/17 12:57:29;;;;;;;3.30;1.80;;;;;;;4.95;66.70;97951.46;226042;1242;138367;-63
2022/11/17 13:02:52;;;;;;;2.50;2.10;;;;;;;5.00;66.92;97953.67;226065;1251;139681;-66
2022/11/17 13:08:19;;;;;;;2.60;2.30;;;;;;;5.10;66.85;97956.42;226062;1241;139374;-65
2022/11/17 13:13:23;;;;;;;3.90;2.60;;;;;;;5.17;66.62;97960.59;226104;1251;138432;-66
2022/11/17 13:18:31;;;;;;;3.20;2.40;;;;;;;5.21;66.39;97970.42;227120;1237;138876;-68
2022/11/17 13:23:43;;;;;;;3.60;2.50;;;;;;;5.22;66.25;97964.52;227292;1244;138811;-66
2022/11/17 13:28:48;;;;;;;2.30;1.90;;;;;;;5.27;66.12;97959.71;226252;1229;137981;-68
2022/11/17 13:34:09;;;;;;;3.30;2.20;;;;;;;5.21;65.88;97957.39;226143;1251;138518;-67
2022/11/17 13:39:15;;;;;;;3.40;2.50;;;;;;;5.15;65.73;97965.31;227036;1237;138458;-63
2022/11/17 13:44:24;;;;;;;4.70;2.50;;;;;;;5.10;65.62;97974.58;225954;1251;138491;-68
2022/11/17 13:49:38;;;;;;;3.20;2.40;;;;;;;4.98;65.59;97982.60;227019;1232;138408;-66
2022/11/17 13:54:43;;;;;;;3.00;2.70;;;;;;;4.91;66.01;97976.48;226151;1236;138584;-64
2022/11/17 13:59:46;;;;;;;3.00;2.50;;;;;;;4.88;65.96;97977.37;226091;1237;138778;-70
2022/11/17 14:05:06;;;;;;;4.30;2.60;;;;;;;4.87;66.07;97978.48;226132;1251;138758;-69
2022/11/17 14:10:19;;;;;;;3.10;2.70;;;;;;;4.85;65.89;97980.55;227207;1242;138935;-67
2022/11/17 14:15:44;;;;;;;6.20;2.70;;;;;;;4.81;66.29;97977.25;226076;1243;138659;-67
2022/11/17 14:21:04;;;;;;;4.90;2.60;;;;;;;4.84;66.17;97965.67;226129;1251;139460;-69
2022/11/17 14:26:33;;;;;;;3.70;2.50;;;;;;;4.89;66.46;97963.75;226187;1236;138629;-66
2022/11/17 14:31:36;;;;;;;3.10;2.50;;;;;;;4.90;66.02;97957.73;226079;1241;139974;-65
2022/11/17 14:36:39;;;;;;;4.00;2.90;;;;;;;4.89;65.93;97967.46;226096;1237;139140;-64
2022/11/17 14:41:44;;;;;;;6.30;3.50;;;;;;;4.92;66.00;97973.08;225932;1251;139147;-67
2022/11/17 14:46:47;;;;;;;3.30;2.80;;;;;;;4.94;66.06;97971.39;226186;1243;208690;-67
2022/11/17 14:51:50;;;;;;;6.70;3.50;;;;;;;4.91;65.89;97964.71;226193;1245;138823;-67
2022/11/17 14:56:53;;;;;;;8.90;4.10;;;;;;;4.87;66.17;97960.73;226256;1241;138233;-64
2022/11/17 15:01:56;;;;;;;6.40;4.00;;;;;;;4.81;66.28;97962.30;226095;1237;138497;-68
2022/11/17 15:06:59;;;;;;;6.40;3.50;;;;;;;4.81;66.86;97958.44;226174;1236;138158;-70
2022/11/17 15:12:02;;;;;;;8.30;3.90;;;;;;;4.77;66.99;97958.32;226053;1236;138120;-66
2022/11/17 15:17:06;;;;;;;4.60;3.30;;;;;;;4.73;67.02;97949.73;227308;1231;138061;-66
2022/11/17 15:22:15;;;;;;;5.80;3.50;;;;;;;4.72;67.02;97942.94;226120;1237;140747;-70
2022/11/17 15:27:18;;;;;;;4.90;3.50;;;;;;;4.80;66.78;97939.50;225975;1251;138881;-66
2022/11/17 15:32:21;;;;;;;7.20;4.00;;;;;;;4.83;66.59;97932.87;226165;1238;139451;-69
2022/11/17 15:37:24;;;;;;;5.60;3.80;;;;;;;4.86;66.52;97932.33;227314;1235;137845;-70
2022/11/17 15:42:27;;;;;;;7.00;3.60;;;;;;;4.83;66.41;97922.48;227021;1244;138406;-72
2022/11/17 15:47:30;;;;;;;4.80;3.70;;;;;;;4.76;66.21;97921.98;227155;1236;138701;-65
2022/11/17 15:52:34;;;;;;;5.70;3.90;;;;;;;4.73;66.37;97923.90;227281;1229;139157;-64
2022/11/17 15:57:56;;;;;;;5.40;4.20;;;;;;;4.65;66.66;97930.17;227269;1243;138602;-67
2022/11/17 16:03:00;;;;;;;7.90;5.60;;;;;;;4.63;67.04;97927.99;227132;1234;138808;-65
2022/11/17 16:08:03;;;;;;;5.40;4.10;;;;;;;4.60;66.71;97927.46;226230;1236;138526;-62
2022/11/17 16:13:06;;;;;;;5.70;3.90;;;;;;;4.53;66.49;97919.92;227149;1228;139407;-65
2022/11/17 16:18:09;;;;;;;5.20;4.30;;;;;;;4.50;66.63;97917.64;226989;1244;138062;-61
2022/11/17 16:23:14;;;;;;;5.10;3.90;;;;;;;4.48;66.76;97914.58;226235;1235;138767;-63
2022/11/17 16:28:17;;;;;;;5.50;4.00;;;;;;;4.49;66.70;97914.33;226125;1237;139183;-63
2022/11/17 16:33:20;;;;;;;4.70;3.90;;;;;;;4.56;66.33;97915.23;226140;1244;138697;-67
2022/11/17 16:38:23;;;;;;;6.70;4.20;;;;;;;4.60;66.10;97911.45;226148;1251;139445;-67
2022/11/17 16:43:28;;;;;;;6.50;4.30;;;;;;;4.57;65.93;97911.13;227235;1233;138524;-65
2022/11/17 16:48:32;;;;;;;6.30;4.90;;;;;;;4.51;65.88;97916.56;226150;1241;138391;-65
2022/11/17 16:53:35;;;;;;;6.00;4.30;;;;;;;4.48;66.31;97917.37;226064;1240;138673;-64
2022/11/17 16:58:39;;;;;;;6.50;4.30;;;;;;;4.45;65.95;97916.67;227276;1243;139059;-65
2022/11/17 17:03:42;;;;;;;6.20;4.40;;;;;;;4.39;65.89;97923.02;225948;1244;137916;-67
2022/11/17 17:08:45;;;;;;;7.90;4.70;;;;;;;4.30;66.13;97934.91;226061;1240;138352;-62
2022/11/17 17:13:48;;;;;;;7.10;4.40;;;;;;;4.25;66.48;97942.37;227053;1244;138865;-62
2022/11/17 17:18:58;;;;;;;7.10;5.70;;;;;;;4.23;66.46;97942.67;226026;1245;139510;-63
2022/11/17 17:24:02;;;;;;;10.10;5.90;;;;;;;4.23;66.61;97944.38;227148;1229;138448;-62
2022/11/17 17:29:06;;;;;;;7.60;4.80;;;;;;;4.22;66.64;97950.23;226098;1251;138273;-63
2022/11/17 17:34:10;;;;;;;8.70;5.20;;;;;;;4.28;66.47;97954.17;226135;1251;138516;-63
2022/11/17 17:39:16;;;;;;;8.00;5.90;;;;;;;4.40;66.31;97956.29;226132;1243;138705;-62
2022/11/17 17:44:20;;;;;;;7.00;5.90;;;;;;;4.48;66.17;97946.39;226024;1251;138667;-66
2022/11/17 17:49:23;;;;;;;8.70;6.00;;;;;;;4.51;66.18;97937.96;226034;1251;138516;-63
2022/11/17 17:54:26;;;;;;;13.40;9.00;;;;;;;4.54;66.71;97927.28;226029;1237;139852;-63
2022/11/17 17:59:29;;;;;;;7.90;6.30;;;;;;;4.54;66.22;97932.02;226163;1251;138754;-62
2022/11/17 18:04:32;;;;;;;8.90;6.10;;;;;;;4.47;65.91;97922.19;226010;1228;138500;-64
2022/11/17 18:09:35;;;;;;;8.20;6.00;;;;;;;4.40;66.29;97922.41;225932;1251;138371;-62
2022/11/17 18:14:40;;;;;;;10.30;6.50;;;;;;;4.39;66.24;97921.23;225980;1233;138342;-62
2022/11/17 18:19:43;;;;;;;7.30;5.80;;;;;;;4.36;66.36;97918.58;226105;1251;139097;-63
2022/11/17 18:24:46;;;;;;;8.70;6.10;;;;;;;4.33;66.34;97931.09;226096;1244;138585;-64
2022/11/17 18:29:49;;;;;;;9.40;6.10;;;;;;;4.31;66.13;97933.27;226132;1237;138634;-62
2022/11/17 18:34:52;;;;;;;10.10;6.30;;;;;;;4.29;66.29;97935.65;226141;1247;138249;-63
2022/11/17 18:39:55;;;;;;;11.60;6.60;;;;;;;4.24;66.17;97929.45;226041;1240;138411;-63
2022/11/17 18:44:58;;;;;;;518.50;317.10;;;;;;;4.22;66.36;97922.54;225935;1237;138926;-65
2022/11/17 18:50:01;;;;;;;10.50;7.30;;;;;;;4.33;66.69;97915.59;227196;1242;139998;-66
2022/11/17 18:55:04;;;;;;;8.70;6.50;;;;;;;4.40;65.95;97908.72;226245;1227;138708;-64
2022/11/17 19:00:08;;;;;;;8.20;6.10;;;;;;;4.38;65.72;97902.34;226192;1241;139357;-63
2022/11/17 19:05:11;;;;;;;8.40;6.20;;;;;;;4.36;66.00;97891.92;226529;1237;138385;-65
2022/11/17 19:10:15;;;;;;;9.50;6.50;;;;;;;4.32;65.96;97892.48;226557;1244;139040;-64
2022/11/17 19:15:18;;;;;;;8.70;6.40;;;;;;;4.30;65.84;97891.88;226493;1250;137930;-65
2022/11/17 19:20:21;;;;;;;9.70;6.80;;;;;;;4.29;65.90;97895.98;226611;1249;138438;-66
2022/11/17 19:25:24;;;;;;;13.10;7.10;;;;;;;4.27;66.21;97887.32;226586;1234;138269;-65
2022/11/17 19:30:27;;;;;;;9.60;7.30;;;;;;;4.27;66.16;97880.63;226707;1234;138332;-65
2022/11/17 19:35:30;;;;;;;11.40;7.70;;;;;;;4.23;66.03;97864.86;226596;1249;139093;-64
2022/11/17 19:40:33;;;;;;;12.60;7.90;;;;;;;4.17;66.23;97858.75;227635;1227;138380;-67
2022/11/17 19:45:36;;;;;;;33.90;17.60;;;;;;;4.16;67.09;97862.47;226515;1245;138858;-65
2022/11/17 19:50:39;;;;;;;11.80;7.50;;;;;;;4.20;66.26;97870.52;227599;1242;139176;-63
2022/11/17 19:55:42;;;;;;;10.40;7.70;;;;;;;4.17;66.29;97878.93;226201;1245;138699;-63
2022/11/17 20:00:47;;;;;;;12.60;8.80;;;;;;;4.22;66.26;97886.52;226563;1235;138432;-63
2022/11/17 20:05:50;;;;;;;10.90;7.90;;;;;;;4.27;65.97;97894.69;226421;1243;138372;-63
2022/11/17 20:11:01;;;;;;;11.00;8.00;;;;;;;4.24;65.53;97892.73;226427;1229;139615;-65
2022/11/17 20:16:07;;;;;;;11.10;8.00;;;;;;;4.18;66.07;97887.98;226384;1243;138998;-65
2022/11/17 20:21:14;;;;;;;14.20;7.80;;;;;;;4.15;66.00;97895.87;226435;1243;139312;-63
2022/11/17 20:26:20;;;;;;;11.70;7.40;;;;;;;4.22;66.01;97898.14;226358;1236;138325;-66
2022/11/17 20:31:25;;;;;;;11.40;7.90;;;;;;;4.17;65.80;97897.66;226226;1241;138439;-64
2022/11/17 20:36:31;;;;;;;;;;;;;;;4.15;66.17;97901.13;226538;1245;138244;-67
2022/11/17 20:41:34;;;;;;;18.80;10.50;;;;;;;4.18;66.31;97897.63;227744;1242;124254;-65
2022/11/17 20:46:37;;;;;;;318.60;193.00;;;;;;;4.25;66.48;97889.34;226576;1235;138238;-68
2022/11/17 20:51:40;;;;;;;11.40;8.10;;;;;;;4.24;65.84;97888.34;227757;1230;139273;-65
2022/11/17 20:56:43;;;;;;;14.70;8.90;;;;;;;4.19;65.67;97884.77;226439;1240;139531;-65
2022/11/17 21:01:48;;;;;;;11.60;7.30;;;;;;;4.21;66.08;97877.79;226547;1235;138809;-65
2022/11/17 21:06:51;;;;;;;12.30;7.80;;;;;;;4.24;65.69;97875.73;226461;1240;233940;-64
2022/11/17 21:11:57;;;;;;;10.80;7.70;;;;;;;4.25;65.50;97873.05;227795;1242;140011;-65
2022/11/17 21:17:00;;;;;;;;;;;;;;;4.24;65.64;97863.80;226758;1239;138754;-65
2022/11/17 21:22:03;;;;;;;12.40;7.70;;;;;;;4.22;65.71;97861.77;227647;1244;125424;-64
2022/11/17 21:27:06;;;;;;;11.30;7.60;;;;;;;4.18;65.81;97858.52;226473;1240;139016;-64
2022/11/17 21:32:09;;;;;;;11.30;8.00;;;;;;;4.14;65.82;97856.05;226604;1251;137891;-64
2022/11/17 21:37:12;;;;;;;12.90;7.90;;;;;;;4.14;65.80;97838.04;226497;1240;138646;-64
2022/11/17 21:42:15;;;;;;;9.50;7.10;;;;;;;4.09;65.88;97824.98;226670;1234;138849;-64
2022/11/17 21:47:20;;;;;;;12.00;8.00;;;;;;;4.04;65.76;97815.73;226856;1238;138499;-67
2022/11/17 21:52:23;;;;;;;10.80;7.40;;;;;;;4.03;65.98;97806.81;226621;1251;138219;-63
2022/11/17 21:57:26;;;;;;;12.10;7.70;;;;;;;4.02;66.06;97805.50;226404;1251;138786;-63
2022/11/17 22:02:29;;;;;;;10.60;7.10;;;;;;;4.01;65.71;97807.63;226527;1240;138984;-66
2022/11/17 22:07:32;;;;;;;12.20;7.30;;;;;;;3.99;65.79;97801.44;226506;1245;138899;-67
2022/11/17 22:12:35;;;;;;;10.40;7.20;;;;;;;3.96;65.94;97790.20;226423;1233;140733;-65
2022/11/17 22:17:38;;;;;;;10.30;6.90;;;;;;;3.97;65.92;97786.66;226479;1241;138954;-66
2022/11/17 22:22:41;;;;;;;10.20;7.50;;;;;;;4.04;65.95;97797.15;227853;1244;139888;-67
2022/11/17 22:27:44;;;;;;;9.80;7.00;;;;;;;4.10;65.69;97790.31;226552;1244;139081;-64
2022/11/17 22:32:47;;;;;;;10.50;7.30;;;;;;;4.14;65.74;97792.59;227865;1232;138086;-65
2022/11/17 22:37:50;;;;;;;10.00;6.60;;;;;;;4.16;65.66;97802.09;226387;1251;139291;-65
2022/11/17 22:42:53;;;;;;;9.10;6.90;;;;;;;4.14;65.59;97802.38;226021;1253;139037;-69
2022/11/17 22:47:56;;;;;;;11.00;7.30;;;;;;;4.12;65.14;97796.52;226158;1240;138249;-64
2022/11/17 22:53:00;;;;;;;8.90;6.70;;;;;;;4.11;65.21;97794.15;226798;1244;138649;-64
2022/11/17 22:58:03;;;;;;;9.70;6.90;;;;;;;4.08;65.25;97790.30;226503;1240;138245;-64
2022/11/17 23:03:06;;;;;;;9.80;6.70;;;;;;;4.06;65.13;97782.50;226514;1251;138575;-62
2022/11/17 23:08:09;;;;;;;9.70;6.60;;;;;;;4.03;65.35;97777.34;226418;1251;138486;-65
2022/11/17 23:13:12;;;;;;;10.60;7.20;;;;;;;4.02;65.37;97773.58;227703;1236;138884;-64
2022/11/17 23:18:15;;;;;;;13.00;6.90;;;;;;;4.00;65.32;97770.31;226664;1241;138451;-66
2022/11/17 23:23:18;;;;;;;9.20;7.10;;;;;;;4.01;65.36;97766.09;226596;1251;138345;-64
2022/11/17 23:28:21;;;;;;;10.20;7.20;;;;;;;3.96;65.33;97763.91;227735;1241;138058;-66
2022/11/17 23:33:24;;;;;;;9.30;6.90;;;;;;;3.92;65.52;97760.92;226400;1245;138279;-64
2022/11/17 23:38:29;;;;;;;8.40;6.20;;;;;;;3.96;65.40;97753.20;226136;1244;138493;-64
2022/11/17 23:43:32;;;;;;;10.00;7.00;;;;;;;4.02;65.57;97749.31;226687;1237;138885;-66
2022/11/17 23:48:36;;;;;;;10.90;7.90;;;;;;;4.10;65.61;97747.32;226535;1248;138722;-63
2022/11/17 23:53:39;;;;;;;11.20;6.90;;;;;;;4.16;65.15;97738.73;226746;1240;138181;-63